Accueil
METAR-TAF:

METAR-TAF

Aéroports :

Aéroport international Prince Saïd Ibrahim

Moroni, Comores

latitude: 11-32S, longitude: 043-16E, altitude: 29 m

Observation

Le bulletin a été fait il y a 24 minutes, à 21:00 UTC
Vent 6 kt de est
Température 25°C
Humidité 74%
Pression 1018 hPa
Visibilité 10 km ou plus
Quelques nuages à une hauteur de 2000 ft

METAR: FMCH 192100Z 10006KT 9999 FEW020 25/20 Q1018 NOSIG

Heure: 00:24 (21:24 UTC)

Prévision

Le bulletin a été fait il y a 4 heures et 24 minutes, à 17:00 UTC
Prévision valable du 19 à 18 UTC au 20 à 24 UTC
Vent 3 kt de direction variable
Visibilité 10 km ou plus
Quelques nuages à une hauteur de 2000 ft
Nuages épars à une hauteur de 3000 ft
Evoluant progressivement
du 20 à 05 UTC au 20 à 07 UTC
Vent 12 kt de sud
Evoluant progressivement
du 20 à 16 UTC au 20 à 18 UTC
Vent 3 kt de est

TAF: FMCH 191700Z 1918/2024 VRB03KT 9999 FEW020 SCT030 BECMG 2005/2007 19012KT BECMG 2016/2018 10003KT

Observations et prévisions météorologiques de plus de 4000 aéroports (messages METAR et TAF).

Les stations disponibles sont représentées par des disques jaunes et rouges sur la carte.

Passer la souris dessus pour voir le nom de la station.

Cliquer dessus pour voir les observations et prévisions météorologiques.

Pour changer de carte: cliquez sur les boutons verts avec une croix noire pour zoomer, sur le bouton vert avec un tiret pour effectuer un zoom arrière, ou sur les flèches vertes pour les cartes adjacentes.


METAR-TAF: